createdAt,value
2022-10-08T00:01:12.578Z,5.93
2022-10-08T00:03:43.601Z,6.07
2022-10-08T00:06:18.197Z,7.35
2022-10-08T00:08:50.065Z,7.28
2022-10-08T00:11:20.939Z,7.43
2022-10-08T00:13:50.426Z,7.43
2022-10-08T00:16:30.007Z,7.32
2022-10-08T00:19:03.842Z,6.70
2022-10-08T00:21:36.977Z,7.32
2022-10-08T00:24:05.741Z,6.47
2022-10-08T00:26:39.816Z,7.57
2022-10-08T00:29:13.593Z,7.68
2022-10-08T00:31:42.164Z,7.47
2022-10-08T00:34:11.594Z,7.07
2022-10-08T00:36:40.405Z,6.53
2022-10-08T00:39:16.825Z,6.55
2022-10-08T00:41:45.923Z,6.60
2022-10-08T00:44:47.295Z,7.07
2022-10-08T00:47:22.546Z,6.63
2022-10-08T00:49:51.565Z,6.18
2022-10-08T00:52:19.843Z,7.25
2022-10-08T00:54:46.861Z,6.78
2022-10-08T00:57:14.055Z,7.13
2022-10-08T00:59:41.135Z,7.22
2022-10-08T01:02:09.129Z,6.47
2022-10-08T01:04:37.792Z,7.47
2022-10-08T01:07:23.562Z,7.10
2022-10-08T01:10:19.764Z,7.40
2022-10-08T01:12:47.544Z,7.43
2022-10-08T01:15:31.971Z,6.60
2022-10-08T01:18:32.407Z,6.80
2022-10-08T01:21:10.133Z,6.63
2022-10-08T01:23:47.492Z,7.05
2022-10-08T01:26:46.610Z,7.22
2022-10-08T01:29:23.175Z,7.60
2022-10-08T01:32:01.961Z,7.13
2022-10-08T01:34:45.098Z,7.28
2022-10-08T01:37:21.652Z,6.95
2022-10-08T01:39:52.529Z,7.15
2022-10-08T01:42:23.416Z,6.63
2022-10-08T01:44:55.162Z,6.90
2022-10-08T01:47:27.982Z,6.88
2022-10-08T01:50:07.747Z,7.63
2022-10-08T01:52:44.040Z,7.10
2022-10-08T01:55:17.038Z,7.45
2022-10-08T01:57:45.661Z,7.28
2022-10-08T02:00:14.871Z,7.43
2022-10-08T02:02:43.175Z,8.95
2022-10-08T02:05:11.730Z,7.32
2022-10-08T02:07:42.515Z,6.97
2022-10-08T02:10:18.881Z,7.53
2022-10-08T02:12:46.317Z,7.30
2022-10-08T02:15:23.702Z,7.15
2022-10-08T02:18:07.874Z,7.60
2022-10-08T02:20:39.913Z,7.80
2022-10-08T02:23:53.352Z,7.95
2022-10-08T02:26:32.069Z,7.60
2022-10-08T02:29:25.176Z,7.78
2022-10-08T02:32:02.038Z,7.80
2022-10-08T02:34:43.990Z,7.25
2022-10-08T02:37:13.153Z,7.85
2022-10-08T02:39:44.056Z,7.15
2022-10-08T02:42:15.544Z,7.88
2022-10-08T02:44:49.680Z,7.63
2022-10-08T02:47:19.890Z,7.10
2022-10-08T02:49:56.235Z,7.88
2022-10-08T02:52:27.371Z,7.93
2022-10-08T02:54:56.484Z,8.63
2022-10-08T02:57:41.047Z,7.78
2022-10-08T03:00:08.659Z,7.57
2022-10-08T03:02:47.437Z,8.05
2022-10-08T03:05:19.371Z,7.80
2022-10-08T03:07:48.890Z,8.50
2022-10-08T03:10:15.844Z,7.40
2022-10-08T03:12:42.793Z,7.25
2022-10-08T03:15:13.705Z,7.65
2022-10-08T03:17:45.058Z,7.65
2022-10-08T03:20:12.630Z,6.88
2022-10-08T03:22:39.963Z,7.18
2022-10-08T03:25:07.119Z,7.45
2022-10-08T03:27:35.337Z,8.35
2022-10-08T03:30:04.011Z,7.40
2022-10-08T03:32:30.830Z,7.90
2022-10-08T03:34:57.766Z,8.60
2022-10-08T03:37:24.971Z,8.68
2022-10-08T03:39:52.270Z,8.10
2022-10-08T03:42:19.276Z,9.10
2022-10-08T03:44:46.055Z,9.35
2022-10-08T03:47:13.040Z,8.43
2022-10-08T03:49:41.212Z,8.05
2022-10-08T03:52:08.249Z,8.77
2022-10-08T03:54:36.093Z,11.70
2022-10-08T03:57:03.607Z,10.88
2022-10-08T03:59:30.503Z,11.82
2022-10-08T04:01:57.452Z,12.45
2022-10-08T04:04:25.718Z,12.20
2022-10-08T04:06:52.873Z,11.63
2022-10-08T04:09:19.608Z,11.65
2022-10-08T04:11:46.763Z,9.10
2022-10-08T04:14:13.536Z,9.70
2022-10-08T04:16:40.666Z,8.38
2022-10-08T04:19:07.468Z,7.90
2022-10-08T04:21:34.315Z,7.38
2022-10-08T04:24:01.115Z,8.18
2022-10-08T04:26:28.341Z,8.30
2022-10-08T04:28:55.224Z,8.18
2022-10-08T04:31:23.561Z,8.52
2022-10-08T04:33:52.126Z,8.73
2022-10-08T04:36:22.081Z,7.88
2022-10-08T04:38:49.969Z,8.13
2022-10-08T04:41:24.518Z,8.30
2022-10-08T04:43:52.633Z,8.40
2022-10-08T04:46:21.318Z,8.80
2022-10-08T04:48:52.685Z,8.20
2022-10-08T04:51:21.061Z,8.00
2022-10-08T04:53:47.846Z,8.45
2022-10-08T04:56:17.875Z,8.60
2022-10-08T04:58:45.244Z,8.38
2022-10-08T05:01:14.730Z,8.40
2022-10-08T05:03:46.366Z,8.63
2022-10-08T05:06:15.003Z,8.40
2022-10-08T05:08:41.905Z,8.38
2022-10-08T05:11:09.211Z,8.23
2022-10-08T05:13:36.134Z,9.18
2022-10-08T05:16:14.179Z,8.57
2022-10-08T05:18:42.009Z,9.50
2022-10-08T05:21:12.360Z,9.95
2022-10-08T05:23:40.022Z,10.27
2022-10-08T05:26:12.915Z,9.50
2022-10-08T05:28:40.175Z,10.60
2022-10-08T05:31:07.094Z,11.75
2022-10-08T05:33:36.161Z,11.93
2022-10-08T05:36:05.762Z,11.13
2022-10-08T05:38:35.081Z,9.90
2022-10-08T05:41:24.514Z,9.77
2022-10-08T05:43:53.685Z,9.70
2022-10-08T05:46:21.075Z,10.27
2022-10-08T05:48:48.186Z,9.07
2022-10-08T05:51:17.675Z,10.23
2022-10-08T05:53:47.193Z,9.30
2022-10-08T05:56:16.622Z,9.82
2022-10-08T05:58:44.268Z,10.27
2022-10-08T06:01:16.615Z,8.85
2022-10-08T06:03:44.037Z,9.20
2022-10-08T06:06:12.003Z,9.82
2022-10-08T06:08:39.101Z,9.20
2022-10-08T06:11:06.458Z,9.60
2022-10-08T06:13:34.527Z,10.50
2022-10-08T06:16:07.322Z,9.70
2022-10-08T06:18:40.114Z,7.90
2022-10-08T06:21:12.177Z,9.07
2022-10-08T06:23:45.465Z,10.75
2022-10-08T06:26:12.680Z,10.65
2022-10-08T06:28:40.190Z,13.18
2022-10-08T06:31:08.414Z,13.02
2022-10-08T06:33:35.351Z,15.65
2022-10-08T06:36:07.650Z,16.48
2022-10-08T06:38:34.923Z,13.32
2022-10-08T06:41:02.124Z,13.32
2022-10-08T06:43:29.454Z,11.98
2022-10-08T06:45:59.921Z,11.75
2022-10-08T06:48:27.656Z,11.93
2022-10-08T06:51:03.317Z,10.63
2022-10-08T06:53:30.844Z,9.82
2022-10-08T06:56:03.108Z,9.90
2022-10-08T06:58:30.273Z,10.55
2022-10-08T07:01:11.140Z,10.07
2022-10-08T07:03:38.397Z,10.63
2022-10-08T07:06:09.134Z,9.13
2022-10-08T07:08:36.473Z,9.88
2022-10-08T07:11:07.762Z,10.27
2022-10-08T07:16:09.214Z,7.55
2022-10-08T07:18:37.985Z,6.90
2022-10-08T07:21:06.310Z,6.68
2022-10-08T07:23:33.774Z,5.93
2022-10-08T07:26:03.495Z,6.47
2022-10-08T07:28:34.531Z,6.20
2022-10-08T07:31:11.837Z,6.57
2022-10-08T07:33:40.745Z,6.82
2022-10-08T07:36:09.354Z,7.25
2022-10-08T07:38:37.140Z,6.80
2022-10-08T07:41:04.362Z,5.95
2022-10-08T07:43:31.318Z,6.10
2022-10-08T07:45:58.499Z,6.65
2022-10-08T07:48:25.371Z,6.78
2022-10-08T07:50:52.338Z,6.13
2022-10-08T07:53:19.218Z,6.13
2022-10-08T07:55:46.262Z,7.00
2022-10-08T07:58:13.826Z,5.45
2022-10-08T08:00:41.213Z,7.72
2022-10-08T08:03:13.430Z,6.68
2022-10-08T08:05:40.699Z,6.10
2022-10-08T08:08:07.590Z,6.45
2022-10-08T08:10:34.542Z,7.40
2022-10-08T08:13:01.438Z,5.95
2022-10-08T08:15:28.420Z,5.95
2022-10-08T08:17:55.210Z,6.10
2022-10-08T08:20:22.126Z,5.47
2022-10-08T08:22:49.319Z,5.35
2022-10-08T08:25:16.557Z,5.50
2022-10-08T08:27:43.601Z,4.78
2022-10-08T08:30:11.006Z,4.80
2022-10-08T08:32:37.927Z,5.65
2022-10-08T08:35:05.138Z,5.30
2022-10-08T08:37:32.133Z,4.68
2022-10-08T08:39:59.055Z,4.93
2022-10-08T08:42:26.707Z,4.85
2022-10-08T08:45:00.426Z,4.75
2022-10-08T08:47:33.110Z,4.60
2022-10-08T08:50:15.454Z,4.18
2022-10-08T08:52:43.653Z,4.10
2022-10-08T08:55:20.296Z,3.67
2022-10-08T08:58:03.015Z,3.97
2022-10-08T09:00:41.865Z,4.13
2022-10-08T09:03:26.753Z,3.50
2022-10-08T09:05:57.808Z,3.55
2022-10-08T09:08:32.033Z,3.22
2022-10-08T09:11:04.145Z,2.92
2022-10-08T09:13:47.923Z,2.92
2022-10-08T09:16:16.099Z,2.92
2022-10-08T09:18:48.550Z,2.63
2022-10-08T09:21:16.265Z,2.33
2022-10-08T09:23:43.668Z,3.10
2022-10-08T09:26:22.153Z,2.40
2022-10-08T09:28:57.088Z,2.00
2022-10-08T09:31:27.044Z,2.05
2022-10-08T09:34:15.747Z,1.80
2022-10-08T09:37:03.411Z,2.00
2022-10-08T09:39:33.911Z,1.67
2022-10-08T09:42:17.720Z,1.65
2022-10-08T09:44:56.747Z,2.00
2022-10-08T09:47:26.336Z,1.58
2022-10-08T09:50:07.311Z,2.00
2022-10-08T09:52:36.776Z,1.67
2022-10-08T09:55:08.895Z,2.05
2022-10-08T09:57:46.124Z,1.90
2022-10-08T10:00:26.335Z,2.60
2022-10-08T10:02:55.942Z,2.00
2022-10-08T10:05:28.763Z,2.28
2022-10-08T10:07:55.914Z,1.85
2022-10-08T10:10:40.066Z,1.83
2022-10-08T10:13:12.597Z,2.45
2022-10-08T10:16:04.494Z,1.95
2022-10-08T10:18:43.883Z,2.05
2022-10-08T10:21:18.057Z,1.40
2022-10-08T10:23:53.577Z,1.58
2022-10-08T10:26:27.526Z,2.28
2022-10-08T10:29:18.862Z,1.75
2022-10-08T10:32:07.177Z,2.05
2022-10-08T10:34:38.732Z,1.52
2022-10-08T10:37:22.314Z,1.75
2022-10-08T10:40:03.723Z,1.90
2022-10-08T10:42:37.989Z,1.85
2022-10-08T10:45:13.727Z,2.92
2022-10-08T10:47:40.979Z,1.63
2022-10-08T10:50:43.547Z,1.70
2022-10-08T10:53:22.147Z,1.73
2022-10-08T10:56:13.667Z,1.73
2022-10-08T10:58:52.511Z,1.52
2022-10-08T11:01:54.701Z,1.50
2022-10-08T11:04:40.250Z,1.75
2022-10-08T11:07:25.569Z,2.05
2022-10-08T11:10:04.635Z,2.58
2022-10-08T11:12:31.689Z,2.72
2022-10-08T11:15:08.584Z,2.47
2022-10-08T11:17:56.391Z,2.20
2022-10-08T11:20:42.082Z,2.20
2022-10-08T11:23:40.887Z,1.85
2022-10-08T11:26:22.656Z,2.20
2022-10-08T11:29:01.379Z,2.00
2022-10-08T11:31:40.371Z,1.85
2022-10-08T11:34:21.674Z,1.70
2022-10-08T11:36:54.839Z,1.90
2022-10-08T11:39:55.216Z,1.88
2022-10-08T11:42:25.381Z,1.73
2022-10-08T11:44:52.339Z,1.67
2022-10-08T11:47:44.303Z,1.58
2022-10-08T11:50:24.822Z,1.67
2022-10-08T11:52:54.133Z,2.00
2022-10-08T11:55:26.748Z,2.22
2022-10-08T11:58:09.756Z,2.28
2022-10-08T12:00:41.770Z,1.63
2022-10-08T12:03:51.494Z,1.60
2022-10-08T12:06:25.265Z,1.92
2022-10-08T12:09:04.478Z,1.75
2022-10-08T12:11:39.888Z,3.30
2022-10-08T12:14:13.125Z,1.92
2022-10-08T12:16:49.392Z,1.70
2022-10-08T12:19:37.695Z,1.80
2022-10-08T12:22:25.321Z,1.75
2022-10-08T12:24:54.083Z,2.05
2022-10-08T12:27:22.613Z,1.80
2022-10-08T12:30:06.073Z,1.40
2022-10-08T12:32:53.112Z,1.80
2022-10-08T12:35:34.057Z,1.70
2022-10-08T12:38:09.054Z,1.73
2022-10-08T12:40:57.493Z,1.40
2022-10-08T12:43:42.323Z,1.70
2022-10-08T12:46:30.268Z,1.33
2022-10-08T12:49:18.466Z,1.70
2022-10-08T12:52:10.521Z,1.60
2022-10-08T12:54:45.590Z,1.70
2022-10-08T12:57:17.165Z,1.80
2022-10-08T12:59:44.088Z,2.20
2022-10-08T13:02:43.901Z,2.08
2022-10-08T13:05:24.770Z,1.90
2022-10-08T13:07:51.846Z,1.70
2022-10-08T13:10:22.682Z,1.38
2022-10-08T13:13:04.759Z,1.65
2022-10-08T13:15:34.048Z,1.42
2022-10-08T13:18:21.084Z,1.65
2022-10-08T13:21:03.185Z,1.50
2022-10-08T13:23:40.730Z,1.40
2022-10-08T13:26:45.183Z,1.90
2022-10-08T13:29:24.378Z,1.90
2022-10-08T13:31:56.390Z,2.05
2022-10-08T13:34:27.554Z,1.75
2022-10-08T13:36:58.561Z,1.75
2022-10-08T13:39:51.803Z,1.63
2022-10-08T13:42:21.787Z,2.45
2022-10-08T13:44:48.983Z,1.92
2022-10-08T13:47:18.630Z,1.92
2022-10-08T13:49:46.603Z,4.80
2022-10-08T13:52:22.306Z,4.07
2022-10-08T13:54:52.975Z,2.58
2022-10-08T13:57:20.027Z,2.42
2022-10-08T13:59:46.900Z,2.60
2022-10-08T14:02:14.661Z,2.92
2022-10-08T14:04:42.019Z,4.63
2022-10-08T14:07:30.503Z,3.13
2022-10-08T14:10:00.583Z,1.73
2022-10-08T14:12:32.480Z,1.90
2022-10-08T14:15:01.084Z,1.98
2022-10-08T14:17:28.149Z,2.92
2022-10-08T14:19:55.629Z,1.90
2022-10-08T14:22:23.271Z,2.60
2022-10-08T14:24:50.297Z,2.88
2022-10-08T14:27:17.560Z,2.25
2022-10-08T14:29:44.491Z,4.07
2022-10-08T14:32:11.939Z,4.97
2022-10-08T14:34:39.481Z,3.33
2022-10-08T14:37:06.995Z,2.90
2022-10-08T14:39:33.923Z,2.45
2022-10-08T14:42:00.871Z,2.90
2022-10-08T14:44:27.957Z,2.58
2022-10-08T14:46:55.033Z,2.80
2022-10-08T14:49:22.298Z,3.30
2022-10-08T14:51:49.328Z,3.22
2022-10-08T14:54:18.153Z,3.55
2022-10-08T14:56:46.259Z,2.67
2022-10-08T14:59:13.754Z,3.20
2022-10-08T15:01:41.105Z,4.82
2022-10-08T15:04:08.191Z,3.33
2022-10-08T15:06:35.320Z,12.57
2022-10-08T15:09:02.250Z,12.85
2022-10-08T15:11:29.311Z,21.05
2022-10-08T15:13:56.174Z,7.78
2022-10-08T15:16:23.721Z,3.53
2022-10-08T15:18:50.732Z,2.90
2022-10-08T15:21:18.954Z,3.33
2022-10-08T15:23:45.788Z,2.53
2022-10-08T15:26:15.960Z,3.05
2022-10-08T15:28:44.835Z,4.15
2022-10-08T15:31:13.521Z,4.30
2022-10-08T15:33:42.598Z,3.22
2022-10-08T15:36:36.276Z,3.45
2022-10-08T15:39:15.172Z,3.58
2022-10-08T15:41:45.111Z,3.67
2022-10-08T15:44:22.375Z,3.22
2022-10-08T15:46:59.090Z,3.33
2022-10-08T15:49:40.505Z,3.97
2022-10-08T15:52:12.435Z,3.95
2022-10-08T15:54:40.654Z,3.97
2022-10-08T15:57:09.503Z,4.93
2022-10-08T15:59:36.990Z,5.25
2022-10-08T16:02:05.089Z,5.22
2022-10-08T16:04:32.061Z,5.68
2022-10-08T16:06:59.174Z,5.85
2022-10-08T16:09:26.054Z,6.45
2022-10-08T16:11:55.429Z,7.10
2022-10-08T16:14:26.378Z,8.18
2022-10-08T16:16:53.950Z,10.18
2022-10-08T16:19:24.339Z,13.25
2022-10-08T16:21:53.707Z,13.20
2022-10-08T16:24:20.824Z,12.88
2022-10-08T16:26:48.953Z,14.43
2022-10-08T16:29:17.550Z,12.40
2022-10-08T16:31:45.885Z,14.65
2022-10-08T16:34:37.449Z,22.27
2022-10-08T16:37:05.008Z,16.80
2022-10-08T16:39:59.604Z,14.90
2022-10-08T16:42:26.600Z,18.63
2022-10-08T16:44:53.342Z,20.38
2022-10-08T16:47:23.151Z,20.38
2022-10-08T16:49:49.933Z,17.60
2022-10-08T16:52:16.734Z,14.05
2022-10-08T16:54:43.588Z,14.15
2022-10-08T16:57:10.498Z,17.77
2022-10-08T16:59:37.494Z,12.40
2022-10-08T17:02:04.335Z,10.27
2022-10-08T17:04:38.911Z,10.80
2022-10-08T17:07:07.562Z,11.02
2022-10-08T17:09:35.477Z,9.70
2022-10-08T17:12:02.527Z,8.75
2022-10-08T17:14:31.190Z,7.28
2022-10-08T17:16:58.082Z,6.57
2022-10-08T17:19:24.962Z,7.63
2022-10-08T17:21:52.101Z,10.95
2022-10-08T17:24:18.954Z,9.40
2022-10-08T17:26:45.810Z,8.75
2022-10-08T17:29:13.162Z,6.85
2022-10-08T17:31:40.598Z,7.47
2022-10-08T17:34:07.845Z,7.00
2022-10-08T17:36:37.731Z,7.05
2022-10-08T17:39:07.523Z,8.85
2022-10-08T17:41:36.526Z,7.50
2022-10-08T17:44:05.878Z,7.68
2022-10-08T17:46:36.395Z,8.38
2022-10-08T17:49:03.902Z,8.60
2022-10-08T17:51:31.270Z,9.73
2022-10-08T17:54:07.510Z,10.63
2022-10-08T17:56:35.069Z,18.77
2022-10-08T17:59:05.087Z,22.88
2022-10-08T18:01:35.143Z,24.52
2022-10-08T18:04:04.772Z,22.08
2022-10-08T18:06:33.095Z,18.27
2022-10-08T18:09:02.479Z,16.00
2022-10-08T18:11:31.277Z,14.65
2022-10-08T18:13:58.827Z,15.68
2022-10-08T18:16:25.799Z,16.42
2022-10-08T18:18:52.934Z,15.45
2022-10-08T18:21:20.384Z,14.77
2022-10-08T18:23:48.467Z,11.48
2022-10-08T18:26:18.090Z,10.05
2022-10-08T18:28:46.602Z,9.02
2022-10-08T18:31:15.678Z,9.25
2022-10-08T18:33:45.774Z,9.63
2022-10-08T18:36:22.635Z,11.27
2022-10-08T18:38:57.395Z,14.35
2022-10-08T18:41:27.685Z,13.52
2022-10-08T18:43:59.416Z,13.18
2022-10-08T18:46:28.493Z,19.50
2022-10-08T18:48:55.829Z,16.58
2022-10-08T18:51:28.488Z,14.38
2022-10-08T18:53:56.972Z,11.38
2022-10-08T18:56:34.403Z,13.02
2022-10-08T18:59:04.554Z,12.57
2022-10-08T19:01:35.033Z,10.30
2022-10-08T19:04:04.458Z,8.65
2022-10-08T19:06:35.016Z,8.32
2022-10-08T19:09:03.302Z,9.43
2022-10-08T19:11:37.713Z,9.48
2022-10-08T19:14:10.991Z,9.90
2022-10-08T19:16:39.684Z,10.23
2022-10-08T19:19:09.757Z,10.15
2022-10-08T19:21:38.731Z,10.02
2022-10-08T19:24:07.203Z,9.55
2022-10-08T19:26:34.318Z,9.95
2022-10-08T19:29:01.156Z,9.27
2022-10-08T19:31:30.901Z,9.75
2022-10-08T19:34:08.096Z,8.98
2022-10-08T19:36:37.656Z,8.45
2022-10-08T19:39:04.847Z,8.38
2022-10-08T19:41:31.981Z,11.57
2022-10-08T19:43:59.554Z,11.60
2022-10-08T19:46:27.826Z,11.00
2022-10-08T19:48:58.012Z,10.70
2022-10-08T19:51:26.631Z,11.65
2022-10-08T19:53:54.439Z,11.65
2022-10-08T19:56:22.764Z,11.43
2022-10-08T19:58:56.051Z,10.50
2022-10-08T20:01:28.812Z,9.95
2022-10-08T20:03:57.710Z,9.32
2022-10-08T20:06:29.501Z,10.10
2022-10-08T20:09:08.204Z,9.95
2022-10-08T20:11:35.242Z,8.63
2022-10-08T20:14:21.532Z,8.82
2022-10-08T20:16:48.736Z,9.90
2022-10-08T20:19:19.431Z,8.30
2022-10-08T20:21:47.739Z,7.00
2022-10-08T20:24:15.249Z,7.13
2022-10-08T20:26:43.471Z,7.57
2022-10-08T20:29:16.075Z,7.90
2022-10-08T20:31:46.701Z,7.47
2022-10-08T20:34:19.474Z,23.17
2022-10-08T20:36:47.521Z,13.77
2022-10-08T20:39:16.114Z,9.13
2022-10-08T20:41:43.278Z,7.13
2022-10-08T20:44:10.681Z,8.48
2022-10-08T20:46:38.333Z,10.07
2022-10-08T20:49:06.343Z,9.43
2022-10-08T20:51:33.878Z,9.20
2022-10-08T20:54:03.354Z,9.68
2022-10-08T20:56:35.852Z,10.10
2022-10-08T20:59:06.680Z,10.55
2022-10-08T21:01:35.842Z,10.20
2022-10-08T21:04:03.118Z,8.80
2022-10-08T21:06:42.496Z,8.88
2022-10-08T21:09:09.951Z,6.95
2022-10-08T21:11:37.464Z,6.85
2022-10-08T21:14:05.875Z,7.10
2022-10-08T21:16:35.837Z,7.80
2022-10-08T21:19:05.699Z,6.65
2022-10-08T21:21:34.471Z,6.78
2022-10-08T21:24:01.392Z,7.20
2022-10-08T21:26:37.227Z,6.15
2022-10-08T21:29:10.245Z,6.80
2022-10-08T21:31:39.444Z,6.35
2022-10-08T21:34:06.928Z,6.13
2022-10-08T21:36:39.341Z,6.18
2022-10-08T21:39:07.729Z,5.75
2022-10-08T21:41:36.724Z,5.50
2022-10-08T21:44:06.823Z,5.93
2022-10-08T21:46:37.283Z,6.78
2022-10-08T21:49:10.945Z,6.07
2022-10-08T21:51:38.042Z,6.15
2022-10-08T21:54:06.491Z,6.85
2022-10-08T21:56:36.310Z,5.95
2022-10-08T21:59:05.247Z,7.78
2022-10-08T22:01:48.561Z,7.25
2022-10-08T22:04:17.386Z,8.25
2022-10-08T22:06:49.991Z,7.03
2022-10-08T22:09:29.578Z,7.57
2022-10-08T22:11:58.126Z,7.30
2022-10-08T22:14:25.805Z,7.93
2022-10-08T22:16:52.819Z,6.90
2022-10-08T22:19:19.803Z,6.72
2022-10-08T22:21:46.967Z,7.15
2022-10-08T22:24:13.957Z,7.07
2022-10-08T22:26:43.940Z,7.65
2022-10-08T22:29:10.894Z,7.70
2022-10-08T22:31:38.614Z,7.55
2022-10-08T22:34:06.165Z,7.57
2022-10-08T22:36:36.567Z,8.10
2022-10-08T22:39:03.469Z,10.38
2022-10-08T22:41:32.506Z,11.05
2022-10-08T22:44:00.293Z,10.23
2022-10-08T22:46:35.062Z,10.80
2022-10-08T22:49:05.811Z,12.15
2022-10-08T22:51:32.693Z,12.25
2022-10-08T22:53:59.820Z,11.90
2022-10-08T22:56:29.793Z,10.80
2022-10-08T22:58:58.745Z,8.95
2022-10-08T23:01:27.423Z,8.80
2022-10-08T23:03:54.679Z,6.90
2022-10-08T23:06:24.442Z,7.15
2022-10-08T23:08:56.758Z,7.00
2022-10-08T23:11:24.213Z,6.88
2022-10-08T23:13:52.961Z,8.15
2022-10-08T23:16:20.385Z,7.45
2022-10-08T23:18:55.963Z,7.75
2022-10-08T23:21:23.572Z,7.20
2022-10-08T23:23:51.958Z,6.40
2022-10-08T23:26:19.039Z,6.30
2022-10-08T23:28:50.481Z,6.68
2022-10-08T23:31:20.428Z,5.63
2022-10-08T23:33:49.081Z,6.05
2022-10-08T23:36:40.424Z,6.30
2022-10-08T23:39:09.473Z,6.22
2022-10-08T23:41:37.552Z,6.30
2022-10-08T23:44:05.617Z,5.50
2022-10-08T23:46:32.858Z,6.03
2022-10-08T23:49:00.016Z,5.57
2022-10-08T23:51:28.583Z,6.03
2022-10-08T23:53:55.642Z,6.57
2022-10-08T23:56:22.728Z,6.63
2022-10-08T23:58:49.618Z,6.75
